Arcadia, Oregon
Current Conditions -  °F | °C
As of 10:53 AM on Monday 26 Jan 2015 (Local Time) from KONO Reporting Station
Clear Clear  
Wind Chill:   Ceiling: Unl
Heat Index:   Visibility: 10mi
Dew Point: -1°   Wind: 3mph
Humidity: 79%   Direction: 70°ENE
Pressure: 30.37"   Gusts: NA
Location:  43.754°N, 117.202°W
Report Text: KONO 261753Z AUTO 07003KT 10SM CLR 03/M01 A3037 RMK AO2 SLP304 I6000 T00281006 10028 21022 58002
Loading
Personal Weather Stations






























Interactive Weather Map New forecast layout! Learn more

10-Day Weather Forecast

Advertisements
Track Severe Weather on mobile